Flight Track Log - Related Links

Times and Time Zones

All times are in EDT time to prevent confusion due to time zone crossing. See the N612CT flight status page for this flight to view local times or setup timezone preferences in your user account.


Time Position Orientation Groundspeed Altitude Reporting Facility
EDT Latitude Longitude Course Direction KTS MPH feet Rate Location/Type
Fri 10:54:38 PM 27.3833 -82.5500 158° South 95 109 400  Level Tampa TRACON
Fri 10:55:38 PM 27.3667 -82.5500 180° South 128 147 1,300 842 Climbing Tampa TRACON
Fri 10:56:32 PM 27.3333 -82.5500 180° South 124 143 2,000 789 Climbing Tampa TRACON
Fri 10:57:32 PM 27.3000 -82.5500 180° South 128 147 2,800 700 Climbing Tampa TRACON
Fri 10:58:32 PM 27.2500 -82.5333 163° South 138 159 3,400 650 Climbing Tampa TRACON
Fri 10:59:32 PM 27.2167 -82.5167 156° South 140 161 4,100 700 Climbing Tampa TRACON
Fri 11:00:00 PM 27.1347 -82.3894 158° South  Level Estimated
Fri 11:01:00 PM 27.1646 -82.4800 119° Southeast  Level Estimated
Fri 11:08:00 PM 26.9159 -82.3056 159° South  Level Estimated
Fri 11:09:00 PM 26.8821 -82.2779 144° Southeast  Level FlightAware Approximate
Fri 11:10:00 PM 26.8482 -82.2503 144° Southeast  Level FlightAware Approximate
Fri 11:11:00 PM 26.8144 -82.2227 144° Southeast  Level FlightAware Approximate
Fri 11:12:00 PM 26.7805 -82.1951 144° Southeast  Level FlightAware Approximate
Fri 11:13:00 PM 26.7466 -82.1675 144° Southeast  Level FlightAware Approximate
Fri 11:14:00 PM 26.7127 -82.1399 144° Southeast  Level FlightAware Approximate
Fri 11:15:00 PM 26.6788 -82.1124 144° Southeast  Level FlightAware Approximate
Fri 11:16:00 PM 26.6449 -82.0849 144° Southeast  Level FlightAware Approximate
Fri 11:17:00 PM 26.6110 -82.0573 144° Southeast  Level FlightAware Approximate
Fri 11:18:00 PM 26.5771 -82.0298 144° Southeast  Level FlightAware Approximate
Fri 11:19:00 PM 26.5432 -82.0024 144° Southeast  Level FlightAware Approximate
Fri 11:20:00 PM 26.5093 -81.9749 144° Southeast  Level FlightAware Approximate
Fri 11:21:00 PM 26.4753 -81.9474 144° Southeast  Level FlightAware Approximate
Fri 11:22:00 PM 26.4414 -81.9200 144° Southeast  Level FlightAware Approximate
Fri 11:23:00 PM 26.4075 -81.8926 144° Southeast  Level FlightAware Approximate
Fri 11:24:00 PM 26.4026 -81.8929 156° South  Level FlightAware Approximate
Fri 11:25:00 PM 26.3644 -81.8738 156° South  Level FlightAware Approximate

Login

Don't have an account? Register now (free) for customized features, flight alerts, and more!